Time;durP1;ratioP1;P1;durP2;ratioP2;P2;SDS_P1;SDS_P2;PMS_P1;PMS_P2;Temp;Humidity;BMP_temperature;BMP_pressure;BME280_temperature;BME280_humidity;BME280_pressure;Samples;Min_cycle;Max_cycle;Signal;HPM_P1;HPM_P2
2021/03/06 09:23:32;;;;;;;8.43;4.18;;;6.50;99.90;;;;;;1972702;23;20500;-68
2021/03/06 09:26:04;;;;;;;5.25;3.67;;;6.60;99.90;;;;;;4936274;28;20219;-78
2021/03/06 09:28:33;;;;;;;9.43;6.68;;;6.50;99.90;;;;;;4946320;28;20215;-74
2021/03/06 09:31:02;;;;;;;4.65;3.92;;;6.60;99.90;;;;;;4950846;29;20236;-79
2021/03/06 09:33:31;;;;;;;11.75;4.78;;;6.60;99.90;;;;;;4950334;28;20313;-77
2021/03/06 09:36:04;;;;;;;6.70;4.55;;;6.50;99.90;;;;;;4949276;29;20222;-74
2021/03/06 09:38:33;;;;;;;13.55;5.00;;;6.60;99.90;;;;;;4953235;28;20721;-74
2021/03/06 09:41:00;;;;;;;8.15;4.93;;;6.60;99.90;;;;;;4952857;29;20539;-74
2021/03/06 09:43:32;;;;;;;6.13;5.18;;;6.60;99.90;;;;;;4953757;28;20225;-72
2021/03/06 09:46:00;;;;;;;11.60;5.55;;;6.50;99.90;;;;;;4954540;28;20203;-72
2021/03/06 09:48:27;;;;;;;11.00;4.22;;;6.70;99.90;;;;;;4953583;28;20215;-72
2021/03/06 09:50:57;;;;;;;13.32;5.40;;;6.80;99.90;;;;;;4951336;28;20202;-75
2021/03/06 09:53:30;;;;;;;7.95;4.20;;;7.00;99.90;;;;;;4952256;28;20589;-73
2021/03/06 09:56:07;;;;;;;8.50;4.57;;;7.30;99.90;;;;;;4953604;28;20220;-75
2021/03/06 09:58:33;;;;;;;10.95;4.03;;;7.60;99.90;;;;;;4953552;28;20652;-74
2021/03/06 10:01:18;;;;;;;9.38;5.03;;;7.60;99.90;;;;;;4954509;29;20221;-76
2021/03/06 10:03:46;;;;;;;10.82;5.22;;;7.70;99.90;;;;;;4954120;28;20250;-73
2021/03/06 10:06:15;;;;;;;5.20;4.70;;;7.60;99.90;;;;;;4959083;28;20208;-74
2021/03/06 10:08:52;;;;;;;7.25;5.07;;;7.60;99.90;;;;;;4956574;28;20679;-74
2021/03/06 10:11:21;;;;;;;13.10;7.00;;;7.50;99.90;;;;;;4953741;29;20198;-71
2021/03/06 10:13:52;;;;;;;12.95;6.43;;;7.40;99.90;;;;;;4954986;28;20567;-71
2021/03/06 10:16:19;;;;;;;10.02;7.50;;;7.20;99.90;;;;;;4953686;29;20204;-72
2021/03/06 10:18:49;;;;;;;14.55;8.77;;;7.20;99.90;;;;;;4952934;28;20632;-72
2021/03/06 10:21:19;;;;;;;15.60;9.93;;;7.20;99.90;;;;;;4952947;29;20269;-75
2021/03/06 10:23:46;;;;;;;18.17;8.98;;;7.10;99.90;;;;;;4952186;28;20696;-74
2021/03/06 10:26:22;;;;;;;13.43;10.20;;;7.00;99.90;;;;;;4953805;29;20288;-73
2021/03/06 10:28:50;;;;;;;15.20;9.18;;;7.10;99.90;;;;;;4946303;28;20675;-74
2021/03/06 10:31:37;;;;;;;12.65;8.77;;;7.20;99.90;;;;;;4951152;28;20331;-72
2021/03/06 10:34:22;;;;;;;15.13;10.20;;;7.20;99.90;;;;;;4950143;28;20266;-74
2021/03/06 10:37:13;;;;;;;13.00;6.13;;;7.30;99.90;;;;;;4950481;28;20207;-73
2021/03/06 10:39:57;;;;;;;10.57;6.60;;;7.40;99.90;;;;;;4945940;29;20200;-70
2021/03/06 10:42:26;;;;;;;11.10;7.15;;;7.60;99.90;;;;;;4950548;28;20208;-72
2021/03/06 10:44:54;;;;;;;15.13;7.28;;;7.80;99.90;;;;;;4949669;28;20301;-73
2021/03/06 10:47:21;;;;;;;17.85;6.25;;;8.00;99.90;;;;;;4945145;29;20220;-72
2021/03/06 10:49:48;;;;;;;9.20;5.90;;;8.10;99.90;;;;;;4950571;28;20724;-71
2021/03/06 10:52:27;;;;;;;14.88;7.43;;;8.30;99.90;;;;;;4957144;28;20640;-71
2021/03/06 10:54:55;;;;;;;11.57;7.05;;;8.40;99.90;;;;;;4949201;28;20216;-69
2021/03/06 10:57:22;;;;;;;8.35;4.00;;;8.60;99.90;;;;;;4945858;28;20216;-69
2021/03/06 10:59:50;;;;;;;7.28;4.25;;;8.60;99.90;;;;;;4950489;28;20221;-70
2021/03/06 11:02:29;;;;;;;8.45;4.00;;;8.60;99.90;;;;;;4950085;28;20213;-71
2021/03/06 11:05:16;;;;;;;8.82;4.95;;;8.40;99.90;;;;;;4951389;29;20217;-72
2021/03/06 11:07:43;;;;;;;8.10;3.85;;;8.30;99.90;;;;;;4949947;28;20256;-73
2021/03/06 11:10:11;;;;;;;5.32;3.13;;;8.50;99.90;;;;;;4949777;29;20230;-70
2021/03/06 11:12:37;;;;;;;5.35;3.10;;;8.60;99.90;;;;;;4948514;28;20646;-74
2021/03/06 11:15:08;;;;;;;9.32;3.55;;;8.80;99.90;;;;;;4941439;29;20211;-71
2021/03/06 11:17:35;;;;;;;6.00;2.97;;;9.10;99.90;;;;;;4948659;28;20227;-71
2021/03/06 11:20:04;;;;;;;6.35;3.08;;;9.40;99.90;;;;;;4943022;29;20207;-71
2021/03/06 11:22:30;;;;;;;5.82;2.85;;;9.60;99.90;;;;;;4950207;28;20677;-70
2021/03/06 11:24:57;;;;;;;7.53;4.38;;;9.70;99.90;;;;;;4952048;28;20570;-73
2021/03/06 11:27:24;;;;;;;8.68;3.20;;;9.70;99.90;;;;;;4956313;28;20215;-73
2021/03/06 11:29:51;;;;;;;6.95;3.75;;;9.50;99.90;;;;;;4952324;28;20247;-73
2021/03/06 11:32:20;;;;;;;6.38;4.25;;;9.50;99.90;;;;;;4952932;28;20222;-71
2021/03/06 11:34:48;;;;;;;7.00;4.72;;;9.30;99.90;;;;;;4956600;29;20206;-73
2021/03/06 11:37:15;;;;;;;10.18;3.72;;;9.20;99.90;;;;;;4954968;28;20224;-73
2021/03/06 11:39:41;;;;;;;6.47;2.58;;;9.00;99.90;;;;;;4956639;28;20345;-73
2021/03/06 11:42:09;;;;;;;8.77;3.13;;;8.80;99.90;;;;;;4955951;28;20212;-76
2021/03/06 11:44:35;;;;;;;8.82;5.13;;;8.50;99.90;;;;;;4952218;28;20232;-73
2021/03/06 11:47:02;;;;;;;7.75;5.25;;;8.30;99.90;;;;;;4954107;29;20221;-74
2021/03/06 11:49:30;;;;;;;6.75;5.60;;;8.10;99.90;;;;;;4953665;28;20285;-77
2021/03/06 11:51:57;;;;;;;8.98;5.65;;;8.00;99.90;;;;;;4953111;29;20229;-75
2021/03/06 11:54:24;;;;;;;6.55;4.30;;;8.00;99.90;;;;;;4954967;28;20317;-73
2021/03/06 11:56:50;;;;;;;8.65;4.60;;;8.00;99.90;;;;;;4958269;28;20214;-71
2021/03/06 11:59:17;;;;;;;5.18;3.15;;;8.00;99.90;;;;;;4956269;29;20624;-72
2021/03/06 12:01:44;;;;;;;3.10;1.77;;;8.00;99.90;;;;;;4948902;28;20237;-72
2021/03/06 12:04:10;;;;;;;2.35;1.80;;;8.00;99.90;;;;;;4955365;28;20583;-71
2021/03/06 12:06:38;;;;;;;2.20;1.75;;;8.10;99.90;;;;;;4949227;28;20613;-71
2021/03/06 12:09:06;;;;;;;4.32;1.92;;;8.30;99.90;;;;;;4954101;29;20210;-71
2021/03/06 12:11:33;;;;;;;2.35;1.50;;;8.60;99.90;;;;;;4958584;28;20308;-71
2021/03/06 12:14:00;;;;;;;5.90;2.28;;;8.80;99.90;;;;;;4950035;28;20223;-72
2021/03/06 12:16:28;;;;;;;4.38;2.33;;;9.10;99.90;;;;;;4947720;29;20281;-73
2021/03/06 12:18:55;;;;;;;2.45;1.80;;;9.50;99.90;;;;;;4956637;28;20217;-72
2021/03/06 12:21:22;;;;;;;3.97;2.03;;;9.70;99.90;;;;;;4951544;28;20285;-71
2021/03/06 12:23:49;;;;;;;5.55;3.28;;;9.70;99.90;;;;;;4955588;28;20238;-72
2021/03/06 12:26:16;;;;;;;3.70;1.55;;;9.60;99.90;;;;;;4953299;28;20203;-73
2021/03/06 12:28:43;;;;;;;2.63;2.03;;;9.50;99.90;;;;;;4955149;28;20207;-72
2021/03/06 12:31:09;;;;;;;3.30;2.30;;;9.40;99.90;;;;;;4952791;29;20727;-74
2021/03/06 12:33:36;;;;;;;3.55;2.00;;;9.50;99.90;;;;;;4955403;28;20227;-70
2021/03/06 12:36:03;;;;;;;3.25;1.85;;;9.40;99.90;;;;;;4955605;28;20203;-71
2021/03/06 12:38:30;;;;;;;4.90;1.10;;;9.50;99.90;;;;;;4955425;28;20213;-71
2021/03/06 12:40:58;;;;;;;2.15;0.90;;;9.70;99.90;;;;;;4955185;29;20203;-73
2021/03/06 12:43:24;;;;;;;2.40;1.38;;;9.80;99.90;;;;;;4952066;28;20230;-70
2021/03/06 12:45:51;;;;;;;1.60;1.20;;;9.80;99.90;;;;;;4954237;28;20268;-67
2021/03/06 12:48:18;;;;;;;2.10;1.23;;;9.50;99.90;;;;;;4953077;28;20210;-70
2021/03/06 12:50:45;;;;;;;2.15;1.40;;;9.50;99.90;;;;;;4956023;28;20568;-71
2021/03/06 12:53:12;;;;;;;1.70;0.90;;;9.50;99.90;;;;;;4954792;28;20299;-71
2021/03/06 12:55:38;;;;;;;4.07;1.30;;;9.60;99.90;;;;;;4954469;28;20211;-70
2021/03/06 12:58:06;;;;;;;4.15;1.30;;;9.50;99.90;;;;;;4953001;29;20208;-70
2021/03/06 13:00:34;;;;;;;2.05;0.93;;;9.40;99.90;;;;;;4954899;28;20230;-72
2021/03/06 13:03:01;;;;;;;3.47;1.20;;;9.40;99.90;;;;;;4954923;28;20672;-71
2021/03/06 13:05:27;;;;;;;1.88;1.30;;;9.50;99.90;;;;;;4947891;29;20210;-74
2021/03/06 13:07:54;;;;;;;2.58;1.70;;;9.60;99.90;;;;;;4954512;29;20295;-72
2021/03/06 13:10:21;;;;;;;2.55;1.35;;;9.80;99.90;;;;;;4952851;29;20305;-71
2021/03/06 13:12:48;;;;;;;2.28;2.08;;;9.80;99.90;;;;;;4953295;28;20223;-73
2021/03/06 13:15:16;;;;;;;2.90;2.10;;;9.60;99.90;;;;;;4954685;29;20298;-71
2021/03/06 13:17:43;;;;;;;3.28;1.77;;;9.70;99.90;;;;;;4952933;28;20214;-73
2021/03/06 13:20:11;;;;;;;2.20;1.33;;;9.70;99.90;;;;;;4951772;28;20217;-73
2021/03/06 13:22:38;;;;;;;1.10;0.95;;;9.70;99.90;;;;;;4955365;28;20240;-72
2021/03/06 13:25:07;;;;;;;1.10;0.93;;;9.70;99.90;;;;;;4954275;28;20273;-73
2021/03/06 13:27:34;;;;;;;0.90;0.80;;;9.50;99.90;;;;;;4938678;28;20216;-79
2021/03/06 13:30:01;;;;;;;1.85;1.20;;;9.30;99.90;;;;;;4946076;29;20211;-73
2021/03/06 13:32:30;;;;;;;2.85;2.17;;;9.30;99.90;;;;;;4942987;28;20806;-81
2021/03/06 13:34:58;;;;;;;2.15;1.15;;;9.30;99.90;;;;;;4945141;28;20199;-76
2021/03/06 13:37:25;;;;;;;2.00;1.30;;;9.20;99.90;;;;;;4953759;28;20350;-75
2021/03/06 13:39:52;;;;;;;2.88;1.73;;;9.20;99.90;;;;;;4951939;28;20225;-76
2021/03/06 13:42:20;;;;;;;1.70;1.15;;;9.00;99.90;;;;;;4953690;28;20199;-76
2021/03/06 13:44:48;;;;;;;3.35;1.38;;;8.90;99.90;;;;;;4954524;28;20691;-76
2021/03/06 13:47:16;;;;;;;6.28;2.13;;;9.00;99.90;;;;;;4954435;28;20211;-78
2021/03/06 13:49:44;;;;;;;3.58;3.10;;;9.10;99.90;;;;;;4953128;28;20289;-75
2021/03/06 13:52:11;;;;;;;7.95;4.43;;;9.20;99.90;;;;;;4950146;28;20233;-75
2021/03/06 13:54:37;;;;;;;5.30;3.30;;;9.30;99.90;;;;;;4952641;28;20222;-77
2021/03/06 13:57:05;;;;;;;6.25;3.30;;;9.30;99.90;;;;;;4949349;28;20207;-74
2021/03/06 13:59:33;;;;;;;4.55;2.10;;;9.50;99.90;;;;;;4947738;28;20207;-74
2021/03/06 14:02:00;;;;;;;4.22;3.13;;;9.60;99.90;;;;;;4950175;28;20246;-72
2021/03/06 14:04:27;;;;;;;3.85;2.88;;;9.60;99.90;;;;;;4953265;28;20309;-75
2021/03/06 14:06:54;;;;;;;1.92;1.67;;;9.70;99.90;;;;;;4950949;28;20203;-71
2021/03/06 14:09:21;;;;;;;3.20;2.50;;;9.80;99.90;;;;;;4944599;28;20226;-74
2021/03/06 14:11:48;;;;;;;3.65;2.20;;;9.80;99.90;;;;;;4950497;28;20237;-76
2021/03/06 14:14:14;;;;;;;6.47;2.80;;;9.70;99.90;;;;;;4952858;28;20229;-74
2021/03/06 14:16:41;;;;;;;4.80;3.58;;;9.60;99.90;;;;;;4952209;28;20211;-75
2021/03/06 14:19:08;;;;;;;8.43;4.20;;;9.60;99.90;;;;;;4945417;28;20207;-73
2021/03/06 14:21:35;;;;;;;4.68;3.58;;;9.60;99.90;;;;;;4951814;28;20294;-74
2021/03/06 14:24:03;;;;;;;5.55;3.20;;;9.60;99.90;;;;;;4951481;28;20238;-72
2021/03/06 14:26:30;;;;;;;6.75;3.30;;;9.60;99.90;;;;;;4959999;28;20234;-74
2021/03/06 14:28:57;;;;;;;9.43;2.90;;;9.50;99.90;;;;;;4947726;29;20202;-74
2021/03/06 14:31:24;;;;;;;3.13;2.50;;;9.50;99.90;;;;;;4954055;28;20207;-74
2021/03/06 14:33:51;;;;;;;1.75;1.45;;;9.40;99.90;;;;;;4958789;28;20313;-72
2021/03/06 14:36:18;;;;;;;4.25;1.20;;;9.30;99.90;;;;;;4957473;28;20285;-74
2021/03/06 14:38:44;;;;;;;2.92;1.10;;;8.90;99.90;;;;;;4951313;28;20735;-74
2021/03/06 14:41:12;;;;;;;4.00;1.27;;;8.70;99.90;;;;;;4954590;28;20214;-73
2021/03/06 14:43:39;;;;;;;1.77;0.75;;;8.60;99.90;;;;;;4951174;28;20233;-73
2021/03/06 14:46:06;;;;;;;0.70;0.60;;;8.40;99.90;;;;;;4952880;28;20213;-73
2021/03/06 14:48:32;;;;;;;1.33;0.80;;;8.30;99.90;;;;;;4952642;28;20292;-72
2021/03/06 14:50:59;;;;;;;2.40;0.80;;;8.10;99.90;;;;;;4953700;28;20683;-73
2021/03/06 14:53:27;;;;;;;2.90;1.00;;;8.00;99.90;;;;;;4952795;28;20239;-74
2021/03/06 14:55:54;;;;;;;2.22;1.38;;;7.90;99.90;;;;;;4953114;29;20265;-73
2021/03/06 14:58:22;;;;;;;2.00;1.30;;;7.90;99.90;;;;;;4949735;28;20204;-73
2021/03/06 15:00:49;;;;;;;1.55;0.90;;;7.80;99.90;;;;;;4955635;28;20203;-73
2021/03/06 15:03:15;;;;;;;3.03;0.90;;;7.80;99.90;;;;;;4952108;28;20345;-72
2021/03/06 15:05:42;;;;;;;4.28;1.42;;;7.80;99.90;;;;;;4957015;28;20208;-73
2021/03/06 15:08:09;;;;;;;1.80;1.45;;;7.80;99.90;;;;;;4959232;28;20213;-73
2021/03/06 15:10:40;;;;;;;3.05;1.20;;;7.80;99.90;;;;;;4959468;28;20601;-72
2021/03/06 15:13:07;;;;;;;3.85;1.63;;;7.80;99.90;;;;;;4964690;28;20703;-73
2021/03/06 15:15:35;;;;;;;5.63;1.60;;;7.90;99.90;;;;;;4959680;28;20678;-72
2021/03/06 15:18:02;;;;;;;2.58;1.10;;;7.90;99.90;;;;;;4959136;28;20211;-73
2021/03/06 15:20:30;;;;;;;5.97;1.70;;;7.80;99.90;;;;;;4958775;28;20204;-73
2021/03/06 15:22:56;;;;;;;2.65;1.92;;;7.80;99.90;;;;;;4953639;28;20768;-73
2021/03/06 15:25:24;;;;;;;3.92;2.95;;;7.70;99.90;;;;;;4959184;28;20576;-73
2021/03/06 15:27:51;;;;;;;4.60;3.80;;;7.80;99.90;;;;;;4959336;28;20214;-73
2021/03/06 15:30:18;;;;;;;9.98;4.60;;;7.70;99.90;;;;;;4959092;29;20235;-73
2021/03/06 15:32:46;;;;;;;7.70;3.70;;;7.70;99.90;;;;;;4959267;28;20236;-74
2021/03/06 15:35:14;;;;;;;5.75;3.58;;;7.70;99.90;;;;;;4961736;28;20293;-74
2021/03/06 15:37:40;;;;;;;8.55;4.07;;;7.70;99.90;;;;;;4964573;28;20734;-74
2021/03/06 15:40:09;;;;;;;6.68;5.65;;;7.70;99.90;;;;;;4958572;28;20215;-74
2021/03/06 15:42:37;;;;;;;9.00;4.75;;;7.70;99.90;;;;;;4962114;28;20209;-72
2021/03/06 15:45:05;;;;;;;4.10;3.60;;;7.70;99.90;;;;;;4957824;29;20340;-75
2021/03/06 15:47:32;;;;;;;6.95;3.65;;;7.70;99.90;;;;;;4957471;28;20209;-75
2021/03/06 15:50:00;;;;;;;4.28;2.72;;;7.70;99.90;;;;;;4948511;29;20214;-72
2021/03/06 15:52:26;;;;;;;5.47;3.03;;;7.70;99.90;;;;;;4948394;28;20316;-75
2021/03/06 15:54:53;;;;;;;4.65;2.35;;;7.60;99.90;;;;;;4944207;29;20279;-73
2021/03/06 15:57:20;;;;;;;4.47;2.40;;;7.60;99.90;;;;;;4945419;29;20211;-71
2021/03/06 15:59:47;;;;;;;2.60;2.08;;;7.60;99.90;;;;;;4948745;29;20206;-70
2021/03/06 16:02:14;;;;;;;4.45;2.33;;;7.60;99.90;;;;;;4951171;28;20282;-73
2021/03/06 16:04:41;;;;;;;4.75;2.50;;;7.50;99.90;;;;;;4948549;28;20236;-74
2021/03/06 16:07:09;;;;;;;3.80;2.60;;;7.50;99.90;;;;;;4949289;29;20598;-76
2021/03/06 16:09:35;;;;;;;5.93;2.30;;;7.40;99.90;;;;;;4956641;29;20215;-77
2021/03/06 16:12:03;;;;;;;4.82;3.05;;;7.40;99.90;;;;;;4957172;29;20309;-74
2021/03/06 16:14:29;;;;;;;6.35;3.63;;;7.40;99.90;;;;;;4953570;28;20228;-74
2021/03/06 16:16:56;;;;;;;3.63;3.28;;;7.40;99.90;;;;;;4957360;28;20223;-74
2021/03/06 16:19:23;;;;;;;9.90;6.47;;;7.20;99.90;;;;;;4953332;28;20204;-74
2021/03/06 16:21:51;;;;;;;4.55;2.50;;;7.10;99.90;;;;;;4957367;28;20196;-76
2021/03/06 16:24:19;;;;;;;5.53;2.65;;;7.00;99.90;;;;;;4955592;28;20295;-78
2021/03/06 16:26:45;;;;;;;4.68;3.03;;;6.90;99.90;;;;;;4954831;28;20326;-76
2021/03/06 16:29:12;;;;;;;5.65;2.90;;;6.80;99.90;;;;;;4954925;28;20233;-75
2021/03/06 16:31:39;;;;;;;7.55;3.60;;;6.70;99.90;;;;;;4954143;29;20228;-78
2021/03/06 16:34:07;;;;;;;7.60;3.30;;;6.60;99.90;;;;;;4944228;28;20279;-73
2021/03/06 16:36:35;;;;;;;4.63;3.05;;;6.60;99.90;;;;;;4943358;28;20222;-73
2021/03/06 16:39:02;;;;;;;6.70;2.65;;;6.50;99.90;;;;;;4950035;29;20203;-75
2021/03/06 16:41:29;;;;;;;6.63;3.70;;;6.50;99.90;;;;;;4954385;28;20207;-74
2021/03/06 16:43:56;;;;;;;5.35;3.00;;;6.60;99.90;;;;;;4955508;28;20234;-73
2021/03/06 16:46:23;;;;;;;7.07;3.20;;;6.60;99.90;;;;;;4956527;28;20213;-70
2021/03/06 16:48:50;;;;;;;8.30;4.55;;;6.60;99.90;;;;;;4953743;28;20218;-73
2021/03/06 16:51:16;;;;;;;8.88;4.65;;;6.60;99.90;;;;;;4955936;28;20237;-71
2021/03/06 16:53:43;;;;;;;8.82;4.80;;;6.60;99.90;;;;;;4958611;28;20228;-75
2021/03/06 16:56:10;;;;;;;7.82;5.32;;;6.60;99.90;;;;;;4957167;28;20211;-71
2021/03/06 16:58:37;;;;;;;6.78;3.20;;;6.60;99.90;;;;;;4954248;28;20210;-76
2021/03/06 17:01:04;;;;;;;8.98;5.35;;;6.60;99.90;;;;;;4959210;29;20286;-70
2021/03/06 17:03:32;;;;;;;6.50;3.65;;;6.70;99.90;;;;;;4957104;28;20234;-74
2021/03/06 17:05:58;;;;;;;7.85;3.65;;;6.70;99.90;;;;;;4954117;28;20195;-73
2021/03/06 17:08:25;;;;;;;13.00;4.65;;;6.70;99.90;;;;;;4954640;28;20222;-73
2021/03/06 17:10:52;;;;;;;10.60;4.45;;;6.60;99.90;;;;;;4955411;29;20319;-76
2021/03/06 17:13:19;;;;;;;8.60;4.88;;;6.60;99.90;;;;;;4951163;29;20222;-76
2021/03/06 17:15:46;;;;;;;7.20;3.65;;;6.60;99.90;;;;;;4950987;28;20235;-71
2021/03/06 17:18:14;;;;;;;14.13;3.90;;;6.60;99.90;;;;;;4950905;28;20262;-73
2021/03/06 17:20:41;;;;;;;7.32;4.20;;;6.60;99.90;;;;;;4954633;29;20219;-76
2021/03/06 17:23:08;;;;;;;8.80;5.70;;;6.50;99.90;;;;;;4950299;28;20301;-72
2021/03/06 17:25:35;;;;;;;7.93;4.85;;;6.50;99.90;;;;;;4953033;28;20224;-71
2021/03/06 17:28:02;;;;;;;11.60;5.80;;;6.60;99.90;;;;;;4951763;28;20222;-75
2021/03/06 17:30:29;;;;;;;9.52;5.65;;;6.60;99.90;;;;;;4954179;28;20207;-74
2021/03/06 17:32:57;;;;;;;10.15;5.10;;;6.60;99.90;;;;;;4954730;28;20321;-74
2021/03/06 17:35:24;;;;;;;13.10;5.93;;;6.50;99.90;;;;;;4952028;28;20195;-73
2021/03/06 17:37:51;;;;;;;13.50;5.68;;;6.50;99.90;;;;;;4947313;29;20204;-77
2021/03/06 17:40:18;;;;;;;9.52;4.95;;;6.60;99.90;;;;;;4945377;29;20206;-71
2021/03/06 17:42:44;;;;;;;9.23;5.45;;;6.60;99.90;;;;;;4946496;28;20238;-74
2021/03/06 17:45:13;;;;;;;6.40;4.63;;;6.60;99.90;;;;;;4946709;28;20208;-73
2021/03/06 17:47:40;;;;;;;7.38;4.13;;;6.60;99.90;;;;;;4947422;28;20583;-73
2021/03/06 17:50:11;;;;;;;6.07;5.13;;;6.50;99.90;;;;;;4947404;28;20690;-71
2021/03/06 17:52:38;;;;;;;6.95;4.80;;;6.60;99.90;;;;;;4949402;28;20807;-73
2021/03/06 17:55:07;;;;;;;7.80;4.60;;;6.60;99.90;;;;;;4951466;28;20211;-72
2021/03/06 17:57:34;;;;;;;9.18;5.00;;;6.70;99.90;;;;;;4956418;28;20206;-71
2021/03/06 18:00:01;;;;;;;6.15;4.25;;;6.70;99.90;;;;;;4953262;28;20207;-73
2021/03/06 18:02:28;;;;;;;6.70;3.70;;;6.70;99.90;;;;;;4954534;28;20234;-74
2021/03/06 18:04:56;;;;;;;5.22;3.65;;;6.70;99.90;;;;;;4954485;28;20207;-73
2021/03/06 18:07:25;;;;;;;5.45;3.83;;;6.60;99.90;;;;;;4955802;28;20227;-74
2021/03/06 18:09:52;;;;;;;10.05;4.50;;;6.60;99.90;;;;;;4950803;28;20207;-74
2021/03/06 18:12:18;;;;;;;5.68;4.05;;;6.60;99.90;;;;;;4953926;29;20215;-71
2021/03/06 18:14:45;;;;;;;7.85;3.45;;;6.70;99.90;;;;;;4954785;28;20212;-74
2021/03/06 18:17:12;;;;;;;7.13;4.03;;;6.70;99.90;;;;;;4954352;28;20221;-72
2021/03/06 18:19:53;;;;;;;6.43;4.18;;;6.70;99.90;;;;;;4954858;28;20660;-71
2021/03/06 18:22:20;;;;;;;13.27;5.57;;;6.60;99.90;;;;;;4956479;28;20294;-75
2021/03/06 18:24:47;;;;;;;8.30;3.72;;;6.60;99.90;;;;;;4957764;28;20693;-73
2021/03/06 18:27:14;;;;;;;10.48;3.50;;;6.60;99.90;;;;;;4951918;29;20292;-75
2021/03/06 18:29:42;;;;;;;6.13;4.15;;;6.60;99.90;;;;;;4949138;29;20210;-72
2021/03/06 18:32:09;;;;;;;7.78;3.90;;;6.60;99.90;;;;;;4955507;28;20231;-73
2021/03/06 18:34:36;;;;;;;4.72;3.20;;;6.60;99.90;;;;;;4948938;28;20222;-70
2021/03/06 18:37:04;;;;;;;5.90;3.33;;;6.60;99.90;;;;;;4953350;28;20208;-72
2021/03/06 18:39:31;;;;;;;11.65;5.25;;;6.60;99.90;;;;;;4951182;28;20218;-72
2021/03/06 18:41:59;;;;;;;5.82;3.92;;;6.60;99.90;;;;;;4959021;28;20199;-73
2021/03/06 18:44:27;;;;;;;9.35;5.15;;;6.60;99.90;;;;;;4947232;28;20232;-73
2021/03/06 18:46:54;;;;;;;5.38;3.00;;;6.60;99.90;;;;;;4954157;28;20689;-74
2021/03/06 18:49:21;;;;;;;4.68;2.88;;;6.60;99.90;;;;;;4949753;28;20203;-73
2021/03/06 18:51:47;;;;;;;5.00;3.08;;;6.50;99.90;;;;;;4950847;28;20224;-73
2021/03/06 18:54:14;;;;;;;4.88;3.30;;;6.50;99.90;;;;;;4953164;28;20291;-73
2021/03/06 18:56:41;;;;;;;6.82;4.40;;;6.40;99.90;;;;;;4945630;28;20296;-72
2021/03/06 18:59:09;;;;;;;5.10;2.88;;;6.40;99.90;;;;;;4949406;29;20247;-73
2021/03/06 19:01:35;;;;;;;6.50;2.95;;;6.40;99.90;;;;;;4948967;28;20291;-71
2021/03/06 19:04:02;;;;;;;6.35;3.70;;;6.40;99.90;;;;;;4948512;28;20323;-70
2021/03/06 19:06:29;;;;;;;5.43;4.43;;;6.30;99.90;;;;;;4951194;28;20259;-73
2021/03/06 19:08:56;;;;;;;9.50;7.75;;;6.30;99.90;;;;;;4947134;29;20314;-72
2021/03/06 19:11:23;;;;;;;8.00;5.75;;;6.40;99.90;;;;;;4948630;28;20226;-73
2021/03/06 19:13:50;;;;;;;5.95;4.65;;;6.40;99.90;;;;;;4953231;28;20315;-74
2021/03/06 19:16:17;;;;;;;5.30;3.97;;;6.40;99.90;;;;;;4948449;28;20205;-73
2021/03/06 19:18:47;;;;;;;12.15;5.30;;;6.40;99.90;;;;;;4955395;28;20655;-73
2021/03/06 19:21:14;;;;;;;5.28;4.43;;;6.40;99.90;;;;;;4947393;28;20206;-71
2021/03/06 19:23:41;;;;;;;8.68;4.78;;;6.40;99.90;;;;;;4949703;28;20242;-72
2021/03/06 19:26:07;;;;;;;16.35;11.23;;;6.30;99.90;;;;;;4952230;28;20210;-71
2021/03/06 19:28:34;;;;;;;10.40;6.30;;;6.40;99.90;;;;;;4948441;28;20203;-73
2021/03/06 19:31:02;;;;;;;10.15;5.95;;;6.40;99.90;;;;;;4949368;29;20219;-73
2021/03/06 19:33:30;;;;;;;10.40;5.70;;;6.40;99.90;;;;;;4949733;29;20727;-73
2021/03/06 19:35:56;;;;;;;9.95;5.97;;;6.40;99.90;;;;;;4947935;28;20243;-73
2021/03/06 19:38:24;;;;;;;8.82;5.90;;;6.40;99.90;;;;;;4953428;28;20262;-70
2021/03/06 19:40:51;;;;;;;12.60;5.78;;;6.30;99.90;;;;;;4945211;28;20350;-72
2021/03/06 19:43:18;;;;;;;15.38;7.80;;;6.40;99.90;;;;;;4953116;28;20241;-69
2021/03/06 19:45:46;;;;;;;14.35;7.07;;;6.30;99.90;;;;;;4951637;28;20215;-72
2021/03/06 19:48:13;;;;;;;18.25;8.73;;;6.30;99.90;;;;;;4950872;28;20207;-73
2021/03/06 19:50:41;;;;;;;13.38;9.45;;;6.30;99.90;;;;;;4949952;28;20646;-72
2021/03/06 19:53:07;;;;;;;12.73;8.18;;;6.20;99.90;;;;;;4953602;28;20215;-79
2021/03/06 19:55:35;;;;;;;14.77;7.20;;;6.20;99.90;;;;;;4959277;29;20289;-81
2021/03/06 19:58:01;;;;;;;10.77;6.40;;;6.20;99.90;;;;;;4948771;28;20207;-71
2021/03/06 20:00:28;;;;;;;9.95;6.18;;;6.10;99.90;;;;;;4951880;29;20218;-74
2021/03/06 20:03:01;;;;;;;9.10;5.05;;;6.10;99.90;;;;;;4956019;28;20225;-71
2021/03/06 20:05:28;;;;;;;7.53;4.35;;;6.10;99.90;;;;;;4951910;29;20927;-70
2021/03/06 20:07:57;;;;;;;9.80;5.97;;;6.00;99.90;;;;;;4955234;29;20230;-76
2021/03/06 20:10:24;;;;;;;8.35;4.78;;;5.90;99.90;;;;;;4953724;28;20211;-79
2021/03/06 20:12:51;;;;;;;7.90;5.32;;;5.90;99.90;;;;;;4955670;28;20234;-73
2021/03/06 20:15:18;;;;;;;9.05;5.10;;;5.90;99.90;;;;;;4951273;28;20241;-71
2021/03/06 20:17:48;;;;;;;9.68;6.97;;;5.80;99.90;;;;;;4947235;28;20208;-71
2021/03/06 20:20:16;;;;;;;9.73;5.25;;;5.70;99.90;;;;;;4954800;28;20215;-73
2021/03/06 20:22:43;;;;;;;7.97;5.18;;;5.60;99.90;;;;;;4956022;28;20269;-73
2021/03/06 20:25:13;;;;;;;8.93;5.85;;;5.60;99.90;;;;;;4961190;28;20239;-71
2021/03/06 20:27:40;;;;;;;11.85;5.60;;;5.50;99.90;;;;;;4948619;28;20208;-72
2021/03/06 20:30:09;;;;;;;15.63;6.07;;;5.40;99.90;;;;;;4952286;29;20262;-72
2021/03/06 20:32:36;;;;;;;8.55;4.45;;;5.40;99.90;;;;;;4954821;28;20258;-70
2021/03/06 20:35:17;;;;;;;12.23;6.57;;;5.30;99.90;;;;;;4979887;23;20239;-84
2021/03/06 20:37:59;;;;;;;8.82;6.32;;;5.30;99.90;;;;;;4958258;28;20215;-85
2021/03/06 20:43:45;;;;;;;12.02;6.50;;;5.10;99.90;;;;;;4958757;28;20281;-82
2021/03/06 20:46:11;;;;;;;6.50;5.22;;;5.00;99.90;;;;;;4957233;28;20206;-82
2021/03/06 20:48:38;;;;;;;10.25;6.20;;;5.00;99.90;;;;;;4967272;29;20290;-82
2021/03/06 20:51:05;;;;;;;19.58;5.78;;;4.90;99.90;;;;;;4959683;29;20226;-81
2021/03/06 20:53:32;;;;;;;11.55;5.07;;;4.90;99.90;;;;;;4948907;29;20206;-85
2021/03/06 20:55:58;;;;;;;7.20;4.15;;;4.90;99.90;;;;;;4946346;29;20318;-84
2021/03/06 20:58:25;;;;;;;7.60;4.85;;;4.80;99.90;;;;;;4962980;28;20230;-83
2021/03/06 21:01:00;;;;;;;5.25;3.75;;;4.70;99.90;;;;;;4957983;28;20254;-82
2021/03/06 21:03:56;;;;;;;12.10;4.70;;;4.70;99.90;;;;;;4949459;29;20215;-83
2021/03/06 21:06:22;;;;;;;5.32;3.70;;;4.60;99.90;;;;;;4949998;29;20685;-80
2021/03/06 21:08:49;;;;;;;10.13;3.70;;;4.60;99.90;;;;;;4953424;29;20298;-81
2021/03/06 21:11:16;;;;;;;6.45;3.92;;;4.60;99.90;;;;;;4957495;29;20275;-81
2021/03/06 21:13:43;;;;;;;7.30;4.15;;;4.60;99.90;;;;;;4951329;29;20247;-85
2021/03/06 21:16:10;;;;;;;8.60;5.50;;;4.60;99.90;;;;;;4963433;28;20227;-83
2021/03/06 21:18:37;;;;;;;7.82;5.20;;;4.50;99.90;;;;;;4951906;28;20203;-81
2021/03/06 21:21:04;;;;;;;9.70;5.00;;;4.40;99.90;;;;;;4943960;29;20232;-80
2021/03/06 21:23:31;;;;;;;8.43;6.35;;;4.40;99.90;;;;;;4950960;29;20227;-84
2021/03/06 21:25:57;;;;;;;4.47;3.35;;;4.40;99.90;;;;;;4958677;28;20210;-83
2021/03/06 21:28:24;;;;;;;10.23;5.57;;;4.40;99.90;;;;;;4952711;29;20204;-82
2021/03/06 21:30:51;;;;;;;10.05;5.45;;;4.30;99.90;;;;;;4956331;28;20228;-85
2021/03/06 21:33:18;;;;;;;10.00;4.22;;;4.20;99.90;;;;;;4956764;28;20735;-83
2021/03/06 21:35:45;;;;;;;4.82;4.22;;;4.20;99.90;;;;;;4960068;28;20225;-84
2021/03/06 21:38:14;;;;;;;9.68;4.43;;;4.10;99.90;;;;;;4951292;28;20211;-83
2021/03/06 21:40:41;;;;;;;4.70;4.30;;;4.00;99.90;;;;;;4955428;28;20293;-83
2021/03/06 21:43:07;;;;;;;6.25;3.65;;;4.00;99.90;;;;;;4953473;29;20269;-82
2021/03/06 21:45:34;;;;;;;4.80;3.65;;;3.90;99.90;;;;;;4955061;29;20230;-83
2021/03/06 21:48:03;;;;;;;9.70;4.28;;;3.90;99.90;;;;;;4961891;28;20682;-86
2021/03/06 21:50:31;;;;;;;13.73;4.70;;;3.90;99.90;;;;;;4958674;28;20287;-84
2021/03/06 21:53:07;;;;;;;5.57;2.90;;;3.90;99.90;;;;;;4952661;29;20209;-86
2021/03/06 21:55:33;;;;;;;6.40;3.30;;;3.80;99.90;;;;;;4956800;29;20288;-82
2021/03/06 21:58:00;;;;;;;6.25;3.20;;;3.90;99.90;;;;;;4953792;28;20210;-83
2021/03/06 22:00:27;;;;;;;6.25;3.42;;;3.80;99.90;;;;;;4958234;28;20320;-83
2021/03/06 22:03:15;;;;;;;6.78;3.47;;;3.70;99.90;;;;;;4962008;29;20281;-85
2021/03/06 22:05:42;;;;;;;5.30;3.15;;;3.80;99.90;;;;;;4962883;28;20301;-86
2021/03/06 22:08:09;;;;;;;6.88;3.85;;;3.80;99.90;;;;;;4967523;28;20222;-87
2021/03/06 22:10:53;;;;;;;4.50;3.05;;;3.70;99.90;;;;;;4974565;28;20316;-83
2021/03/06 22:13:23;;;;;;;6.30;3.78;;;3.70;99.90;;;;;;4950104;29;20206;-86
2021/03/06 22:18:57;;;;;;;4.22;3.72;;;3.60;99.90;;;;;;4926165;28;20227;-83
2021/03/06 22:22:04;;;;;;;12.13;4.82;;;3.60;99.90;;;;;;4972901;28;20231;-84
2021/03/06 22:24:34;;;;;;;8.35;4.72;;;3.60;99.90;;;;;;4970710;28;20244;-84
2021/03/06 22:27:01;;;;;;;4.95;3.88;;;3.50;99.90;;;;;;4968579;28;20217;-85
2021/03/06 22:29:50;;;;;;;6.63;5.15;;;3.40;99.90;;;;;;4957469;28;20282;-85